This is the latest recevied weather packets stored in our database for station/object SA4AGM-10. If no packets are shown the sender has not sent any weather packets the latest 10 day(s).
| Time | Temp. | Humidity | Pressure | Rain* | Wind** | Luminosity | Snow |
|---|---|---|---|---|---|---|---|
| 1777698530 | 11.67° C | 52% | 1012.2 hPa | - | - | - | - |
| 1777697630 | 11.11° C | 54% | 1012.3 hPa | - | - | - | - |
| 1777696730 | 10.56° C | 56% | 1012.5 hPa | - | - | - | - |
| 1777695830 | 10° C | 57% | 1012.6 hPa | - | - | - | - |
| 1777694930 | 10° C | 58% | 1012.6 hPa | - | - | - | - |
| 1777694030 | 10° C | 58% | 1012.7 hPa | - | - | - | - |
| 1777693129 | 10° C | 56% | 1012.8 hPa | - | - | - | - |
| 1777692228 | 10° C | 56% | 1012.9 hPa | - | - | - | - |
| 1777691328 | 10° C | 56% | 1013 hPa | - | - | - | - |
| 1777690427 | 10° C | 56% | 1013.3 hPa | - | - | - | - |
| 1777689527 | 10° C | 54% | 1013.4 hPa | - | - | - | - |
| 1777688627 | 10.56° C | 52% | 1013.5 hPa | - | - | - | - |
| 1777687727 | 10.56° C | 53% | 1013.5 hPa | - | - | - | - |
| 1777686827 | 11.11° C | 51% | 1013.9 hPa | - | - | - | - |
| 1777685927 | 11.11° C | 50% | 1013.9 hPa | - | - | - | - |
| 1777685027 | 11.11° C | 50% | 1014 hPa | - | - | - | - |
| 1777684127 | 11.11° C | 50% | 1014.2 hPa | - | - | - | - |
| 1777683227 | 11.67° C | 51% | 1014.1 hPa | - | - | - | - |
| 1777682326 | 11.11° C | 51% | 1014.4 hPa | - | - | - | - |
| 1777681426 | 11.67° C | 51% | 1014.5 hPa | - | - | - | - |
| 1777680526 | 11.67° C | 51% | 1014.7 hPa | - | - | - | - |
| 1777679626 | 11.67° C | 51% | 1014.8 hPa | - | - | - | - |
| 1777678726 | 12.22° C | 48% | 1014.8 hPa | - | - | - | - |
| 1777677826 | 12.78° C | 47% | 1015 hPa | - | - | - | - |
| 1777676926 | 12.78° C | 46% | 1015.1 hPa | - | - | - | - |
* Rain since midnight (hover to see other rain measurements)
** Current wind speed in m/s (hover to see current wind gust speed)